Time;durP1;ratioP1;P1;durP2;ratioP2;P2;SDS_P1;SDS_P2;PMS_P1;PMS_P2;Temp;Humidity;BMP_temperature;BMP_pressure;BME280_temperature;BME280_humidity;BME280_pressure;Samples;Min_cycle;Max_cycle;Signal;HPM_P1;HPM_P2
2021/08/18 00:00:19;;;;;;;;;7.00;7.00;;;;;;;;5072674;28;50925;-54
2021/08/18 00:02:44;;;;;;;;;5.00;5.00;;;;;;;;5072618;28;51187;-51
2021/08/18 00:05:11;;;;;;;;;7.00;5.67;;;;;;;;5072718;28;50985;-54
2021/08/18 00:07:36;;;;;;;;;6.00;6.00;;;;;;;;5072996;28;51265;-51
2021/08/18 00:10:04;;;;;;;;;6.00;5.67;;;;;;;;5072269;28;51235;-50
2021/08/18 00:12:29;;;;;;;;;5.33;5.33;;;;;;;;5072394;28;51091;-53
2021/08/18 00:14:54;;;;;;;;;6.00;6.00;;;;;;;;5072566;28;50881;-53
2021/08/18 00:17:20;;;;;;;;;5.00;5.00;;;;;;;;5074979;28;51269;-53
2021/08/18 00:19:45;;;;;;;;;7.67;5.00;;;;;;;;5076190;28;51171;-53
2021/08/18 00:22:10;;;;;;;;;6.00;5.67;;;;;;;;5075995;28;50943;-53
2021/08/18 00:24:35;;;;;;;;;4.00;4.00;;;;;;;;5075888;28;50993;-53
2021/08/18 00:27:00;;;;;;;;;12.00;10.00;;;;;;;;5076245;28;51340;-51
2021/08/18 00:29:26;;;;;;;;;8.00;7.33;;;;;;;;5076090;28;51192;-50
2021/08/18 00:31:51;;;;;;;;;8.00;7.33;;;;;;;;5057880;28;51017;-52
2021/08/18 00:34:16;;;;;;;;;5.67;5.67;;;;;;;;5076241;28;51022;-53
2021/08/18 00:36:41;;;;;;;;;6.33;5.00;;;;;;;;5076063;28;51079;-53
2021/08/18 00:39:07;;;;;;;;;6.00;5.67;;;;;;;;5073142;27;51518;-52
2021/08/18 00:41:32;;;;;;;;;6.00;6.00;;;;;;;;5073956;28;51255;-52
2021/08/18 00:43:58;;;;;;;;;6.00;4.33;;;;;;;;5075907;28;51099;-52
2021/08/18 00:46:23;;;;;;;;;7.00;6.00;;;;;;;;5075890;28;51065;-53
2021/08/18 00:48:48;;;;;;;;;5.00;4.00;;;;;;;;5075738;28;51052;-51
2021/08/18 00:51:13;;;;;;;;;2.00;1.00;;;;;;;;5075485;28;50916;-53
2021/08/18 00:53:39;;;;;;;;;5.67;5.33;;;;;;;;5075089;28;50979;-53
2021/08/18 00:56:04;;;;;;;;;5.00;5.00;;;;;;;;5076280;28;51319;-50
2021/08/18 00:58:30;;;;;;;;;6.00;6.00;;;;;;;;5075750;28;51863;-52
2021/08/18 01:00:56;;;;;;;;;4.00;4.00;;;;;;;;5075561;28;51135;-53
2021/08/18 01:03:21;;;;;;;;;7.00;6.00;;;;;;;;5075938;28;50851;-54
2021/08/18 01:05:46;;;;;;;;;6.00;5.67;;;;;;;;5075397;28;50931;-52
2021/08/18 01:08:11;;;;;;;;;4.67;4.33;;;;;;;;5075111;28;50965;-52
2021/08/18 01:10:37;;;;;;;;;4.67;4.67;;;;;;;;5057322;28;51047;-53
2021/08/18 01:13:03;;;;;;;;;7.33;6.00;;;;;;;;5075405;28;51322;-53
2021/08/18 01:15:28;;;;;;;;;5.00;5.00;;;;;;;;5075643;28;51233;-52
2021/08/18 01:17:55;;;;;;;;;6.00;5.00;;;;;;;;5075185;28;52036;-53
2021/08/18 01:20:25;;;;;;;;;4.67;4.67;;;;;;;;5075369;27;51083;-52
2021/08/18 01:22:50;;;;;;;;;4.33;4.33;;;;;;;;5075464;28;50883;-51
2021/08/18 01:25:16;;;;;;;;;5.00;4.67;;;;;;;;5075340;28;50929;-50
2021/08/18 01:27:46;;;;;;;;;5.00;5.00;;;;;;;;5074401;28;51023;-50
2021/08/18 01:30:11;;;;;;;;;5.00;4.00;;;;;;;;5075040;28;51015;-53
2021/08/18 01:32:57;;;;;;;;;4.00;4.00;;;;;;;;5075099;28;51088;-54
2021/08/18 01:35:39;;;;;;;;;6.00;6.00;;;;;;;;5075197;28;51371;-53
2021/08/18 01:38:05;;;;;;;;;7.67;6.00;;;;;;;;5074309;28;51075;-51
2021/08/18 01:40:31;;;;;;;;;6.00;6.00;;;;;;;;5075327;28;51005;-52
2021/08/18 01:42:57;;;;;;;;;6.00;6.00;;;;;;;;5074697;28;51210;-51
2021/08/18 01:45:22;;;;;;;;;4.00;4.00;;;;;;;;5075447;28;51108;-51
2021/08/18 01:47:48;;;;;;;;;6.33;6.00;;;;;;;;5074756;28;51165;-55
2021/08/18 01:50:13;;;;;;;;;5.00;4.00;;;;;;;;5074876;28;51053;-52
2021/08/18 01:52:39;;;;;;;;;3.00;3.00;;;;;;;;5074553;28;51218;-52
2021/08/18 01:55:05;;;;;;;;;4.00;4.00;;;;;;;;5074642;28;51117;-52
2021/08/18 01:57:30;;;;;;;;;4.00;4.00;;;;;;;;5074437;28;51091;-51
2021/08/18 01:59:55;;;;;;;;;6.00;6.00;;;;;;;;5075061;28;51029;-54
2021/08/18 02:02:20;;;;;;;;;4.00;3.67;;;;;;;;5074906;28;51359;-51
2021/08/18 02:04:45;;;;;;;;;5.00;4.67;;;;;;;;5056640;28;51279;-52
2021/08/18 02:07:11;;;;;;;;;5.67;5.67;;;;;;;;5074477;28;51964;-53
2021/08/18 02:09:36;;;;;;;;;3.67;3.33;;;;;;;;5074376;28;50919;-53
2021/08/18 02:12:01;;;;;;;;;5.00;5.00;;;;;;;;5056328;28;51307;-53
2021/08/18 02:14:26;;;;;;;;;3.33;3.00;;;;;;;;5074674;28;51077;-53
2021/08/18 02:16:51;;;;;;;;;5.00;5.00;;;;;;;;5056118;28;51940;-54
2021/08/18 02:19:17;;;;;;;;;4.33;4.33;;;;;;;;5074937;28;50918;-54
2021/08/18 02:21:42;;;;;;;;;5.67;4.33;;;;;;;;5074587;28;50989;-53
2021/08/18 02:24:07;;;;;;;;;3.33;3.33;;;;;;;;5056174;28;51070;-53
2021/08/18 02:26:32;;;;;;;;;4.67;4.67;;;;;;;;5055978;28;51004;-53
2021/08/18 02:28:57;;;;;;;;;7.00;7.00;;;;;;;;5074316;28;50950;-53
2021/08/18 02:31:23;;;;;;;;;5.00;4.00;;;;;;;;5074393;28;50877;-54
2021/08/18 02:33:48;;;;;;;;;3.67;3.67;;;;;;;;5074587;28;51447;-53
2021/08/18 02:36:13;;;;;;;;;5.00;4.00;;;;;;;;5073995;28;51785;-54
2021/08/18 02:38:38;;;;;;;;;6.00;5.00;;;;;;;;5073640;28;51049;-53
2021/08/18 02:41:04;;;;;;;;;3.67;3.67;;;;;;;;5065633;27;51228;-51
2021/08/18 02:43:29;;;;;;;;;3.00;3.00;;;;;;;;5073330;28;51435;-53
2021/08/18 02:45:54;;;;;;;;;4.00;4.00;;;;;;;;5074176;28;52259;-53
2021/08/18 02:48:19;;;;;;;;;5.33;5.00;;;;;;;;5073840;28;50921;-54
2021/08/18 02:50:45;;;;;;;;;10.00;7.67;;;;;;;;5073958;28;51058;-52
2021/08/18 02:53:10;;;;;;;;;3.00;3.00;;;;;;;;5073706;28;51241;-54
2021/08/18 02:55:35;;;;;;;;;5.00;5.00;;;;;;;;5073412;28;51803;-54
2021/08/18 02:58:00;;;;;;;;;4.00;4.00;;;;;;;;5073931;28;50868;-51
2021/08/18 03:00:26;;;;;;;;;5.00;4.00;;;;;;;;5074030;28;50800;-55
2021/08/18 03:02:51;;;;;;;;;6.00;5.00;;;;;;;;5074161;28;51200;-54
2021/08/18 03:05:16;;;;;;;;;5.33;5.33;;;;;;;;5073541;28;52344;-53
2021/08/18 03:07:41;;;;;;;;;6.67;5.67;;;;;;;;5073790;28;51001;-54
2021/08/18 03:10:07;;;;;;;;;4.00;4.00;;;;;;;;5073581;28;51088;-52
2021/08/18 03:12:33;;;;;;;;;5.67;5.33;;;;;;;;5073662;28;50879;-53
2021/08/18 03:14:58;;;;;;;;;4.33;3.33;;;;;;;;5073382;28;51145;-51
2021/08/18 03:17:23;;;;;;;;;4.00;3.33;;;;;;;;5055235;28;51258;-53
2021/08/18 03:19:48;;;;;;;;;4.00;4.00;;;;;;;;5073594;28;51376;-53
2021/08/18 03:22:14;;;;;;;;;5.33;4.33;;;;;;;;5073798;28;51141;-54
2021/08/18 03:24:39;;;;;;;;;4.33;4.00;;;;;;;;5073227;28;51980;-53
2021/08/18 03:27:04;;;;;;;;;5.00;5.00;;;;;;;;5073395;28;51228;-53
2021/08/18 03:29:29;;;;;;;;;6.00;5.00;;;;;;;;5073666;28;51185;-51
2021/08/18 03:31:54;;;;;;;;;5.00;5.00;;;;;;;;5073388;28;51366;-53
2021/08/18 03:34:20;;;;;;;;;5.00;4.33;;;;;;;;5073172;28;52206;-51
2021/08/18 03:36:45;;;;;;;;;5.33;5.00;;;;;;;;5073117;28;51241;-50
2021/08/18 03:39:10;;;;;;;;;6.00;5.00;;;;;;;;5072936;28;51096;-52
2021/08/18 03:41:35;;;;;;;;;6.00;5.00;;;;;;;;5073306;28;51180;-53
2021/08/18 03:44:00;;;;;;;;;3.00;3.00;;;;;;;;5073002;28;52693;-53
2021/08/18 03:46:26;;;;;;;;;6.00;6.00;;;;;;;;5072980;28;51124;-52
2021/08/18 03:48:51;;;;;;;;;4.67;4.67;;;;;;;;5073052;28;51064;-53
2021/08/18 03:51:17;;;;;;;;;6.33;5.00;;;;;;;;5072022;28;50997;-53
2021/08/18 03:53:42;;;;;;;;;7.00;6.00;;;;;;;;5072341;28;50990;-54
2021/08/18 03:56:07;;;;;;;;;5.33;5.00;;;;;;;;5054580;28;50887;-53
2021/08/18 03:58:32;;;;;;;;;6.00;5.67;;;;;;;;5054891;28;51025;-53
2021/08/18 04:00:57;;;;;;;;;6.00;5.00;;;;;;;;5073165;28;51486;-54
2021/08/18 04:03:23;;;;;;;;;6.33;5.00;;;;;;;;5072740;28;51847;-54
2021/08/18 04:05:48;;;;;;;;;5.00;5.00;;;;;;;;5072495;28;50941;-53
2021/08/18 04:08:13;;;;;;;;;5.33;5.33;;;;;;;;5072873;28;50899;-53
2021/08/18 04:10:40;;;;;;;;;5.67;5.00;;;;;;;;5073027;28;51046;-54
2021/08/18 04:13:05;;;;;;;;;7.00;6.00;;;;;;;;5072389;28;51161;-54
2021/08/18 04:15:41;;;;;;;;;6.33;6.00;;;;;;;;5072662;28;51040;-53
2021/08/18 04:18:07;;;;;;;;;7.67;7.00;;;;;;;;5054760;28;50970;-54
2021/08/18 04:20:32;;;;;;;;;6.00;5.67;;;;;;;;5072753;28;51239;-53
2021/08/18 04:22:58;;;;;;;;;6.67;6.00;;;;;;;;5072221;28;52125;-54
2021/08/18 04:25:23;;;;;;;;;8.00;7.00;;;;;;;;5054107;28;51016;-54
2021/08/18 04:27:49;;;;;;;;;6.33;6.00;;;;;;;;5072919;28;52112;-53
2021/08/18 04:30:15;;;;;;;;;6.00;5.67;;;;;;;;5072645;28;51341;-54
2021/08/18 04:32:40;;;;;;;;;6.00;6.00;;;;;;;;5054008;28;54063;-54
2021/08/18 04:35:06;;;;;;;;;7.00;7.00;;;;;;;;5072379;28;50953;-53
2021/08/18 04:37:31;;;;;;;;;5.67;5.67;;;;;;;;5072758;28;50846;-54
2021/08/18 04:39:57;;;;;;;;;6.00;6.00;;;;;;;;5072356;28;51405;-50
2021/08/18 04:42:23;;;;;;;;;8.33;7.33;;;;;;;;5061301;27;51169;-52
2021/08/18 04:44:48;;;;;;;;;8.00;6.67;;;;;;;;5069248;28;51085;-54
2021/08/18 04:47:13;;;;;;;;;5.67;5.67;;;;;;;;5067131;28;50880;-51
2021/08/18 04:49:38;;;;;;;;;6.00;6.00;;;;;;;;5068924;28;50957;-52
2021/08/18 04:52:04;;;;;;;;;8.33;8.00;;;;;;;;5072128;28;52153;-51
2021/08/18 04:54:29;;;;;;;;;6.67;6.00;;;;;;;;5071714;28;51011;-54
2021/08/18 04:56:54;;;;;;;;;7.00;7.00;;;;;;;;5072466;28;50917;-54
2021/08/18 04:59:19;;;;;;;;;7.33;7.00;;;;;;;;5072275;28;50914;-51
2021/08/18 05:01:45;;;;;;;;;8.00;8.00;;;;;;;;5071951;28;51094;-49
2021/08/18 05:04:10;;;;;;;;;8.00;6.00;;;;;;;;5074266;28;50925;-53
2021/08/18 05:06:35;;;;;;;;;5.67;5.67;;;;;;;;5066621;28;50832;-54
2021/08/18 05:09:01;;;;;;;;;8.00;7.33;;;;;;;;5075699;28;50862;-52
2021/08/18 05:11:26;;;;;;;;;6.00;6.00;;;;;;;;5075560;28;52396;-51
2021/08/18 05:13:51;;;;;;;;;6.00;5.00;;;;;;;;5075175;28;51117;-53
2021/08/18 05:16:16;;;;;;;;;6.00;6.00;;;;;;;;5075917;28;50972;-53
2021/08/18 05:18:41;;;;;;;;;7.00;6.00;;;;;;;;5075414;28;50940;-51
2021/08/18 05:21:07;;;;;;;;;5.33;5.33;;;;;;;;5075169;28;51390;-53
2021/08/18 05:23:32;;;;;;;;;7.33;7.33;;;;;;;;5074767;28;51085;-53
2021/08/18 05:25:57;;;;;;;;;8.00;7.00;;;;;;;;5057178;28;51005;-53
2021/08/18 05:28:22;;;;;;;;;8.00;7.67;;;;;;;;5075209;28;50936;-54
2021/08/18 05:30:48;;;;;;;;;8.00;8.00;;;;;;;;5074808;28;51180;-52
2021/08/18 05:33:13;;;;;;;;;7.00;7.00;;;;;;;;5074796;28;51174;-53
2021/08/18 05:35:38;;;;;;;;;9.00;7.33;;;;;;;;5075252;28;51204;-53
2021/08/18 05:38:03;;;;;;;;;7.00;6.33;;;;;;;;5074562;28;51195;-54
2021/08/18 05:40:29;;;;;;;;;5.67;4.67;;;;;;;;5074744;28;51894;-53
2021/08/18 05:42:54;;;;;;;;;11.00;10.33;;;;;;;;5056295;28;51002;-52
2021/08/18 05:45:19;;;;;;;;;7.00;7.00;;;;;;;;5074797;28;51079;-52
2021/08/18 05:47:44;;;;;;;;;6.33;6.33;;;;;;;;5074793;28;51033;-53
2021/08/18 05:50:10;;;;;;;;;7.67;7.00;;;;;;;;5074645;28;51068;-53
2021/08/18 05:52:35;;;;;;;;;7.00;7.00;;;;;;;;5074616;28;50974;-53
2021/08/18 05:55:02;;;;;;;;;6.00;6.00;;;;;;;;5074166;28;51068;-54
2021/08/18 05:57:28;;;;;;;;;5.00;5.00;;;;;;;;5075029;28;51073;-52
2021/08/18 05:59:53;;;;;;;;;6.33;6.00;;;;;;;;5074249;28;52056;-53
2021/08/18 06:02:18;;;;;;;;;4.67;4.67;;;;;;;;5074476;28;50960;-53
2021/08/18 06:04:44;;;;;;;;;10.67;9.67;;;;;;;;5074626;28;52084;-53
2021/08/18 06:07:09;;;;;;;;;15.33;14.67;;;;;;;;5074308;28;51112;-53
2021/08/18 06:09:34;;;;;;;;;8.00;7.00;;;;;;;;5073995;28;50960;-53
2021/08/18 06:11:59;;;;;;;;;7.00;6.33;;;;;;;;5073751;28;51021;-53
2021/08/18 06:14:25;;;;;;;;;5.00;5.00;;;;;;;;5073492;28;50855;-50
2021/08/18 06:16:50;;;;;;;;;8.33;7.67;;;;;;;;5074299;28;51093;-54
2021/08/18 06:19:16;;;;;;;;;6.33;6.33;;;;;;;;5074183;28;52216;-53
2021/08/18 06:21:41;;;;;;;;;4.00;4.00;;;;;;;;5074208;28;51235;-54
2021/08/18 06:24:17;;;;;;;;;5.67;5.67;;;;;;;;5073966;28;50945;-53
2021/08/18 06:26:42;;;;;;;;;5.00;5.00;;;;;;;;5074008;28;50953;-54
2021/08/18 06:29:07;;;;;;;;;7.33;7.00;;;;;;;;5054937;28;53129;-53
2021/08/18 06:31:34;;;;;;;;;7.00;7.00;;;;;;;;5055665;28;51010;-55
2021/08/18 06:33:59;;;;;;;;;7.67;7.00;;;;;;;;5074103;28;51040;-54
2021/08/18 06:36:25;;;;;;;;;7.33;7.33;;;;;;;;5073966;28;51032;-53
2021/08/18 06:38:50;;;;;;;;;7.33;6.67;;;;;;;;5073109;28;51790;-55
2021/08/18 06:41:15;;;;;;;;;6.00;6.00;;;;;;;;5073641;28;50940;-51
2021/08/18 06:43:41;;;;;;;;;7.33;7.33;;;;;;;;5067063;27;50977;-54
2021/08/18 06:46:06;;;;;;;;;5.67;5.67;;;;;;;;5068047;28;51809;-51
2021/08/18 06:48:31;;;;;;;;;9.00;8.00;;;;;;;;5073510;28;52697;-52
2021/08/18 06:50:56;;;;;;;;;4.67;4.67;;;;;;;;5073290;28;50880;-53
2021/08/18 06:53:21;;;;;;;;;9.00;8.00;;;;;;;;5072912;28;50957;-54
2021/08/18 06:55:47;;;;;;;;;8.00;8.00;;;;;;;;5073473;28;51494;-54
2021/08/18 06:58:12;;;;;;;;;9.00;9.00;;;;;;;;5073314;28;52160;-55
2021/08/18 07:00:37;;;;;;;;;8.33;7.33;;;;;;;;5073204;28;51044;-53
2021/08/18 07:03:02;;;;;;;;;4.00;4.00;;;;;;;;5054753;28;51436;-53
2021/08/18 07:05:32;;;;;;;;;5.67;5.67;;;;;;;;5064511;28;51261;-54
2021/08/18 07:07:57;;;;;;;;;8.33;8.00;;;;;;;;5072513;28;51103;-53
2021/08/18 07:10:23;;;;;;;;;7.67;7.00;;;;;;;;5073240;28;50953;-53
2021/08/18 07:12:48;;;;;;;;;5.67;5.67;;;;;;;;5073138;28;50985;-52
2021/08/18 07:15:13;;;;;;;;;6.67;5.67;;;;;;;;5073467;28;51220;-52
2021/08/18 07:17:38;;;;;;;;;8.67;7.33;;;;;;;;5072950;28;51637;-53
2021/08/18 07:20:04;;;;;;;;;7.00;7.00;;;;;;;;5073308;28;51025;-52
2021/08/18 07:22:29;;;;;;;;;10.33;9.00;;;;;;;;5073398;28;50934;-53
2021/08/18 07:24:55;;;;;;;;;8.00;8.00;;;;;;;;5073178;28;51077;-52
2021/08/18 07:27:21;;;;;;;;;6.33;6.00;;;;;;;;5071859;28;52185;-51
2021/08/18 07:29:46;;;;;;;;;6.00;6.00;;;;;;;;5073224;28;51031;-54
2021/08/18 07:32:11;;;;;;;;;7.00;7.00;;;;;;;;5072822;28;50899;-53
2021/08/18 07:34:37;;;;;;;;;5.00;5.00;;;;;;;;5073038;28;50880;-53
2021/08/18 07:37:02;;;;;;;;;7.67;7.33;;;;;;;;5072455;28;51343;-54
2021/08/18 07:39:27;;;;;;;;;7.67;7.33;;;;;;;;5072443;28;50940;-53
2021/08/18 07:41:52;;;;;;;;;9.00;8.33;;;;;;;;5072857;28;50979;-51
2021/08/18 07:44:18;;;;;;;;;8.00;6.67;;;;;;;;5072975;28;51193;-53
2021/08/18 07:46:46;;;;;;;;;5.67;5.33;;;;;;;;5072347;28;50903;-53
2021/08/18 07:49:11;;;;;;;;;7.00;7.00;;;;;;;;5072617;28;51164;-51
2021/08/18 07:51:37;;;;;;;;;4.33;4.33;;;;;;;;5072785;28;51310;-53
2021/08/18 07:54:02;;;;;;;;;6.33;4.33;;;;;;;;5072204;28;51156;-53
2021/08/18 07:56:31;;;;;;;;;9.00;6.33;;;;;;;;5072170;28;51132;-54
2021/08/18 07:58:56;;;;;;;;;6.33;5.33;;;;;;;;5072413;28;51142;-53
2021/08/18 08:01:22;;;;;;;;;10.00;9.00;;;;;;;;5072256;28;50923;-49
2021/08/18 08:03:47;;;;;;;;;7.00;6.00;;;;;;;;5072980;28;50945;-51
2021/08/18 08:06:12;;;;;;;;;5.33;5.33;;;;;;;;5072171;28;52117;-52
2021/08/18 08:08:37;;;;;;;;;6.00;6.00;;;;;;;;5072293;28;51048;-54
2021/08/18 08:11:02;;;;;;;;;6.67;6.67;;;;;;;;5072017;28;50912;-52
2021/08/18 08:13:28;;;;;;;;;7.00;6.00;;;;;;;;5072539;28;51061;-53
2021/08/18 08:15:53;;;;;;;;;5.00;5.00;;;;;;;;5072099;28;51021;-53
2021/08/18 08:18:18;;;;;;;;;6.00;6.00;;;;;;;;5072277;28;51082;-53
2021/08/18 08:20:43;;;;;;;;;6.33;5.67;;;;;;;;5072133;28;51178;-53
2021/08/18 08:23:08;;;;;;;;;5.00;5.00;;;;;;;;5072297;28;50797;-52
2021/08/18 08:25:33;;;;;;;;;6.00;6.00;;;;;;;;5071715;28;51982;-52
2021/08/18 08:27:59;;;;;;;;;6.00;6.00;;;;;;;;5072010;28;50896;-53
2021/08/18 08:30:24;;;;;;;;;5.33;5.00;;;;;;;;5071971;28;51057;-54
2021/08/18 08:32:50;;;;;;;;;4.00;4.00;;;;;;;;5072322;28;51306;-52
2021/08/18 08:35:15;;;;;;;;;5.00;5.00;;;;;;;;5071768;28;52101;-53
2021/08/18 08:37:40;;;;;;;;;12.00;11.67;;;;;;;;5054642;28;50949;-53
2021/08/18 08:40:06;;;;;;;;;6.33;6.33;;;;;;;;5075795;28;50912;-54
2021/08/18 08:42:32;;;;;;;;;7.00;7.00;;;;;;;;5075918;28;51314;-55
2021/08/18 08:44:59;;;;;;;;;4.00;4.00;;;;;;;;5060205;27;52344;-54
2021/08/18 08:47:24;;;;;;;;;4.00;4.00;;;;;;;;5075539;28;51083;-53
2021/08/18 08:49:49;;;;;;;;;6.67;6.67;;;;;;;;5075349;28;51088;-54
2021/08/18 08:52:15;;;;;;;;;6.00;5.00;;;;;;;;5075638;28;51327;-54
2021/08/18 08:54:43;;;;;;;;;5.00;5.00;;;;;;;;5074641;28;51336;-53
2021/08/18 08:57:08;;;;;;;;;6.00;6.00;;;;;;;;5075363;28;50878;-49
2021/08/18 08:59:33;;;;;;;;;5.00;5.00;;;;;;;;5074559;28;51032;-55
2021/08/18 09:02:02;;;;;;;;;5.33;5.33;;;;;;;;5075678;28;50931;-52
2021/08/18 09:04:38;;;;;;;;;7.00;7.00;;;;;;;;5074491;28;51667;-53
2021/08/18 09:07:13;;;;;;;;;6.00;5.00;;;;;;;;5067214;28;51088;-53
2021/08/18 09:09:42;;;;;;;;;6.00;6.00;;;;;;;;5074265;28;50899;-54
2021/08/18 09:12:12;;;;;;;;;5.67;5.67;;;;;;;;5074219;28;51182;-52
2021/08/18 09:14:38;;;;;;;;;6.33;6.33;;;;;;;;5074424;28;51718;-54
2021/08/18 09:17:23;;;;;;;;;6.00;6.00;;;;;;;;5074521;28;51123;-54
2021/08/18 09:19:56;;;;;;;;;8.00;8.00;;;;;;;;5074218;28;50928;-55
2021/08/18 09:22:21;;;;;;;;;8.00;8.00;;;;;;;;5074617;28;51253;-52
2021/08/18 09:24:46;;;;;;;;;7.67;7.00;;;;;;;;5073803;28;51061;-52
2021/08/18 09:27:11;;;;;;;;;7.67;6.33;;;;;;;;5074290;28;50941;-53
2021/08/18 09:29:37;;;;;;;;;8.67;8.00;;;;;;;;5074482;28;51093;-53
2021/08/18 09:32:21;;;;;;;;;8.00;8.00;;;;;;;;5074221;28;51312;-52
2021/08/18 09:34:53;;;;;;;;;5.67;5.67;;;;;;;;5073946;28;52169;-54
2021/08/18 09:37:18;;;;;;;;;5.33;5.33;;;;;;;;5074304;28;50902;-52
2021/08/18 09:39:43;;;;;;;;;6.00;6.00;;;;;;;;5073881;28;50896;-51
2021/08/18 09:42:26;;;;;;;;;7.33;7.33;;;;;;;;5074216;28;51065;-54
2021/08/18 09:45:10;;;;;;;;;7.00;6.33;;;;;;;;5073859;28;51755;-53
2021/08/18 09:47:35;;;;;;;;;5.00;5.00;;;;;;;;5074161;28;51094;-54
2021/08/18 09:50:00;;;;;;;;;5.33;5.33;;;;;;;;5073165;28;51015;-52
2021/08/18 09:52:26;;;;;;;;;5.33;5.33;;;;;;;;5073967;28;51360;-56
2021/08/18 09:54:51;;;;;;;;;6.00;5.00;;;;;;;;5073318;28;51754;-51
2021/08/18 09:57:28;;;;;;;;;6.00;5.33;;;;;;;;5073757;28;50919;-54
2021/08/18 09:59:53;;;;;;;;;6.00;5.00;;;;;;;;5074017;28;50978;-53
2021/08/18 10:02:19;;;;;;;;;6.00;6.00;;;;;;;;5073876;28;51201;-52
2021/08/18 10:04:44;;;;;;;;;6.00;6.00;;;;;;;;5073640;28;51796;-55
2021/08/18 10:07:10;;;;;;;;;5.00;5.00;;;;;;;;5073467;28;50902;-53
2021/08/18 10:09:36;;;;;;;;;5.33;5.33;;;;;;;;5073619;28;50882;-56
2021/08/18 10:12:02;;;;;;;;;7.00;5.33;;;;;;;;5073817;28;51244;-52
2021/08/18 10:14:27;;;;;;;;;3.33;3.00;;;;;;;;5055153;28;52014;-54
2021/08/18 10:16:52;;;;;;;;;3.00;2.33;;;;;;;;5073686;28;51113;-54
2021/08/18 10:19:19;;;;;;;;;3.67;3.67;;;;;;;;5073584;28;51293;-52
2021/08/18 10:21:44;;;;;;;;;2.00;2.00;;;;;;;;5073854;28;51091;-53
2021/08/18 10:24:28;;;;;;;;;4.00;3.33;;;;;;;;5072676;28;52136;-54
2021/08/18 10:26:53;;;;;;;;;3.67;3.67;;;;;;;;5073194;28;50985;-54
2021/08/18 10:29:21;;;;;;;;;3.67;3.00;;;;;;;;5073546;28;50985;-55
2021/08/18 10:31:47;;;;;;;;;2.00;1.67;;;;;;;;5073513;28;51341;-54
2021/08/18 10:34:22;;;;;;;;;2.67;2.67;;;;;;;;5073153;28;51091;-53
2021/08/18 10:36:51;;;;;;;;;2.00;2.00;;;;;;;;5073277;28;50851;-52
2021/08/18 10:39:26;;;;;;;;;2.00;2.00;;;;;;;;5072936;28;51415;-52
2021/08/18 10:42:03;;;;;;;;;3.00;3.00;;;;;;;;5073451;28;51020;-53
2021/08/18 10:44:34;;;;;;;;;5.00;4.67;;;;;;;;5070003;27;51070;-52
2021/08/18 10:47:12;;;;;;;;;3.00;3.00;;;;;;;;5073373;28;50911;-52
2021/08/18 10:49:37;;;;;;;;;5.00;4.00;;;;;;;;5073537;28;51192;-52
2021/08/18 10:52:02;;;;;;;;;3.00;3.00;;;;;;;;5073358;28;50846;-53
2021/08/18 10:54:27;;;;;;;;;3.00;3.00;;;;;;;;5072287;28;51122;-54
2021/08/18 10:56:57;;;;;;;;;4.33;4.00;;;;;;;;5073022;28;51058;-54
2021/08/18 10:59:35;;;;;;;;;4.33;3.33;;;;;;;;5072642;28;50971;-54
2021/08/18 11:02:00;;;;;;;;;4.67;4.67;;;;;;;;5071979;28;51250;-52
2021/08/18 11:04:42;;;;;;;;;6.67;6.00;;;;;;;;5053799;28;52279;-51
2021/08/18 11:07:07;;;;;;;;;6.00;6.00;;;;;;;;5065676;28;50966;-53
2021/08/18 11:09:50;;;;;;;;;5.33;5.33;;;;;;;;5072637;28;50996;-52
2021/08/18 11:12:34;;;;;;;;;5.00;5.00;;;;;;;;5072722;28;51020;-52
2021/08/18 11:14:59;;;;;;;;;7.00;7.00;;;;;;;;5063802;28;51835;-51
2021/08/18 11:17:25;;;;;;;;;6.00;6.00;;;;;;;;5072170;28;51161;-54
2021/08/18 11:19:53;;;;;;;;;8.67;6.67;;;;;;;;5073003;28;50953;-51
2021/08/18 11:22:18;;;;;;;;;7.00;7.00;;;;;;;;5072843;28;51317;-54
2021/08/18 11:24:44;;;;;;;;;6.33;6.33;;;;;;;;5071623;28;50966;-53
2021/08/18 11:27:10;;;;;;;;;8.00;8.00;;;;;;;;5072371;28;51148;-52
2021/08/18 11:29:35;;;;;;;;;6.00;6.00;;;;;;;;5072099;28;51205;-52
2021/08/18 11:32:00;;;;;;;;;8.67;8.00;;;;;;;;5072531;28;51033;-53
2021/08/18 11:34:35;;;;;;;;;9.00;8.33;;;;;;;;5071882;28;52121;-54
2021/08/18 11:37:02;;;;;;;;;9.00;9.00;;;;;;;;5071380;28;51001;-51
2021/08/18 11:39:29;;;;;;;;;8.67;8.67;;;;;;;;5053670;28;51073;-54
2021/08/18 11:41:54;;;;;;;;;11.00;10.00;;;;;;;;5071923;28;51216;-54
2021/08/18 11:44:29;;;;;;;;;10.33;10.33;;;;;;;;5071822;28;51032;-55
2021/08/18 11:47:03;;;;;;;;;10.00;10.00;;;;;;;;5071153;28;51006;-53
2021/08/18 11:49:29;;;;;;;;;10.33;10.33;;;;;;;;5071837;28;50937;-51
2021/08/18 11:51:54;;;;;;;;;9.00;8.67;;;;;;;;5072061;28;50892;-53
2021/08/18 11:54:23;;;;;;;;;10.00;10.00;;;;;;;;5071055;28;52031;-53
2021/08/18 11:56:57;;;;;;;;;10.67;10.67;;;;;;;;5071861;28;50974;-54
2021/08/18 11:59:22;;;;;;;;;10.00;10.00;;;;;;;;5071872;28;50906;-54
2021/08/18 12:01:50;;;;;;;;;12.67;10.33;;;;;;;;5071858;28;50844;-54
2021/08/18 12:04:15;;;;;;;;;13.33;12.33;;;;;;;;5071212;28;51981;-53
2021/08/18 12:06:40;;;;;;;;;8.33;8.33;;;;;;;;5070977;28;51121;-54
2021/08/18 12:09:20;;;;;;;;;6.00;6.00;;;;;;;;5071364;28;51214;-54
2021/08/18 12:11:45;;;;;;;;;10.33;10.00;;;;;;;;5071384;28;51002;-52
2021/08/18 12:14:12;;;;;;;;;8.00;8.00;;;;;;;;5071040;28;51138;-53
2021/08/18 12:16:37;;;;;;;;;12.00;11.33;;;;;;;;5071309;28;50886;-52
2021/08/18 12:19:19;;;;;;;;;11.00;10.33;;;;;;;;5071568;28;51068;-56
2021/08/18 12:21:46;;;;;;;;;11.67;11.67;;;;;;;;5071567;28;51425;-54
2021/08/18 12:24:13;;;;;;;;;10.00;8.33;;;;;;;;5071117;28;52004;-54
2021/08/18 12:26:40;;;;;;;;;10.67;10.00;;;;;;;;5070970;28;50966;-53
2021/08/18 12:29:06;;;;;;;;;12.67;11.33;;;;;;;;5071368;28;51060;-53
2021/08/18 12:31:50;;;;;;;;;9.67;9.00;;;;;;;;5071224;28;51266;-53
2021/08/18 12:34:15;;;;;;;;;12.00;10.00;;;;;;;;5071153;28;50913;-51
2021/08/18 12:36:40;;;;;;;;;12.00;12.00;;;;;;;;5062776;28;51003;-53
2021/08/18 12:39:06;;;;;;;;;9.33;9.00;;;;;;;;5042535;28;50910;-53
2021/08/18 12:41:33;;;;;;;;;10.67;10.00;;;;;;;;5071636;28;51080;-54
2021/08/18 12:44:05;;;;;;;;;13.00;12.00;;;;;;;;5053571;28;51227;-52
2021/08/18 12:46:33;;;;;;;;;11.00;9.67;;;;;;;;5061999;27;51230;-53
2021/08/18 12:49:17;;;;;;;;;12.00;10.33;;;;;;;;5070522;28;50985;-54
2021/08/18 12:51:43;;;;;;;;;8.67;8.00;;;;;;;;5071463;28;51920;-53
2021/08/18 12:54:08;;;;;;;;;11.00;10.00;;;;;;;;5070177;28;51013;-54
2021/08/18 12:56:33;;;;;;;;;8.00;7.67;;;;;;;;5071138;28;51057;-53
2021/08/18 12:58:58;;;;;;;;;7.00;7.00;;;;;;;;5070879;28;51120;-56
2021/08/18 13:01:23;;;;;;;;;9.00;8.00;;;;;;;;5070687;28;51390;-51
2021/08/18 13:03:50;;;;;;;;;8.33;8.33;;;;;;;;5070291;28;52160;-55
2021/08/18 13:06:15;;;;;;;;;9.33;9.33;;;;;;;;5052422;28;51039;-53
2021/08/18 13:08:40;;;;;;;;;9.33;9.33;;;;;;;;5070565;28;51020;-51
2021/08/18 13:11:05;;;;;;;;;8.67;8.00;;;;;;;;5071106;28;51362;-53
2021/08/18 13:13:31;;;;;;;;;9.00;9.00;;;;;;;;5070635;28;51984;-53
2021/08/18 13:15:56;;;;;;;;;10.00;9.67;;;;;;;;5070807;28;51030;-51
2021/08/18 13:18:21;;;;;;;;;8.67;8.33;;;;;;;;5070528;28;51060;-51
2021/08/18 13:20:46;;;;;;;;;10.67;10.00;;;;;;;;5071043;28;51367;-53
2021/08/18 13:23:11;;;;;;;;;8.33;7.67;;;;;;;;5070124;28;51154;-54
2021/08/18 13:25:38;;;;;;;;;11.67;10.67;;;;;;;;5072989;28;50977;-54
2021/08/18 13:28:03;;;;;;;;;12.67;12.67;;;;;;;;5074176;28;50938;-52
2021/08/18 13:30:29;;;;;;;;;14.00;12.00;;;;;;;;5074275;28;51410;-53
2021/08/18 13:32:54;;;;;;;;;12.00;12.00;;;;;;;;5074279;28;51898;-53
2021/08/18 13:35:19;;;;;;;;;13.33;12.00;;;;;;;;5067470;28;50870;-54
2021/08/18 13:37:44;;;;;;;;;12.67;11.00;;;;;;;;5073537;28;50843;-54
2021/08/18 13:40:10;;;;;;;;;9.00;8.00;;;;;;;;5073994;28;50872;-53
2021/08/18 13:42:35;;;;;;;;;12.33;12.33;;;;;;;;5073722;28;51120;-55
2021/08/18 13:45:00;;;;;;;;;10.00;10.00;;;;;;;;5073688;28;50974;-53
2021/08/18 13:47:26;;;;;;;;;11.00;10.67;;;;;;;;5073937;28;50863;-53
2021/08/18 13:49:51;;;;;;;;;10.00;7.33;;;;;;;;5073690;28;50932;-53
2021/08/18 13:52:16;;;;;;;;;12.00;12.00;;;;;;;;5073349;28;52524;-53
2021/08/18 13:54:41;;;;;;;;;11.67;11.67;;;;;;;;5073573;28;51140;-54
2021/08/18 13:57:08;;;;;;;;;13.00;12.00;;;;;;;;5073728;28;51388;-55
2021/08/18 13:59:33;;;;;;;;;14.00;13.67;;;;;;;;5073569;28;51319;-53
2021/08/18 14:01:58;;;;;;;;;13.33;11.33;;;;;;;;5073328;28;52613;-54
2021/08/18 14:04:23;;;;;;;;;10.33;9.67;;;;;;;;5073709;28;51013;-53
2021/08/18 14:06:49;;;;;;;;;8.33;8.33;;;;;;;;5054808;28;51185;-55
2021/08/18 14:09:14;;;;;;;;;13.67;12.67;;;;;;;;5073205;28;51213;-54
2021/08/18 14:11:40;;;;;;;;;11.67;11.67;;;;;;;;5073429;28;52233;-51
2021/08/18 14:14:05;;;;;;;;;10.67;10.00;;;;;;;;5072712;28;50873;-53
2021/08/18 14:16:31;;;;;;;;;11.00;9.00;;;;;;;;5073029;28;51157;-54
2021/08/18 14:18:57;;;;;;;;;8.67;8.67;;;;;;;;5054886;28;51171;-52
2021/08/18 14:21:23;;;;;;;;;10.00;9.33;;;;;;;;5054690;28;52001;-60
2021/08/18 14:23:48;;;;;;;;;8.00;7.67;;;;;;;;5073077;28;50927;-51
2021/08/18 14:26:13;;;;;;;;;9.67;9.00;;;;;;;;5073656;28;50918;-54
2021/08/18 14:28:38;;;;;;;;;10.00;9.00;;;;;;;;5073630;28;51115;-52
2021/08/18 14:31:04;;;;;;;;;9.00;9.00;;;;;;;;5073201;28;51203;-53
2021/08/18 14:33:30;;;;;;;;;10.33;9.33;;;;;;;;5073264;28;51014;-54